createdAt,value
2023-04-18T00:04:26.771Z,81.89
2023-04-18T00:09:29.257Z,77.78
2023-04-18T00:14:31.719Z,74.05
2023-04-18T00:19:34.461Z,73.69
2023-04-18T00:24:36.875Z,75.67
2023-04-18T00:29:40.683Z,77.79
2023-04-18T00:34:43.077Z,78.63
2023-04-18T00:39:45.472Z,79.57
2023-04-18T00:44:48.228Z,81.86
2023-04-18T00:49:50.699Z,77.98
2023-04-18T00:54:53.330Z,80.48
2023-04-18T00:59:55.983Z,79.92
2023-04-18T01:05:00.940Z,82.53
2023-04-18T01:10:04.438Z,81.01
2023-04-18T01:15:08.187Z,77.40
2023-04-18T01:20:12.597Z,79.89
2023-04-18T01:25:15.873Z,78.86
2023-04-18T01:30:18.261Z,74.58
2023-04-18T01:35:20.610Z,74.60
2023-04-18T01:40:23.096Z,78.10
2023-04-18T01:45:25.685Z,80.51
2023-04-18T01:50:28.135Z,80.83
2023-04-18T01:55:30.665Z,80.61
2023-04-18T02:00:33.143Z,80.17
2023-04-18T02:05:37.797Z,74.32
2023-04-18T02:10:42.882Z,74.46
2023-04-18T02:15:46.067Z,77.44
2023-04-18T02:20:51.614Z,81.47
2023-04-18T02:25:53.981Z,80.77
2023-04-18T02:30:56.360Z,81.86
2023-04-18T02:35:58.566Z,74.79
2023-04-18T02:41:00.981Z,74.68
2023-04-18T02:46:03.391Z,79.36
2023-04-18T02:51:07.822Z,79.90
2023-04-18T02:56:14.891Z,75.68
2023-04-18T03:01:35.928Z,78.29
2023-04-18T03:06:44.828Z,79.28
2023-04-18T03:11:47.346Z,81.73
2023-04-18T03:16:54.593Z,80.09
2023-04-18T03:22:01.269Z,81.50
2023-04-18T03:27:04.415Z,81.17
2023-04-18T03:32:06.930Z,82.23
2023-04-18T03:37:09.465Z,83.13
2023-04-18T03:42:17.620Z,81.54
2023-04-18T03:47:20.639Z,81.91
2023-04-18T03:52:29.918Z,80.20
2023-04-18T03:57:32.651Z,77.93
2023-04-18T04:02:36.195Z,76.02
2023-04-18T04:07:38.731Z,76.23
2023-04-18T04:12:42.164Z,76.85
2023-04-18T04:17:44.812Z,78.07
2023-04-18T04:22:47.612Z,78.50
2023-04-18T04:27:53.839Z,78.27
2023-04-18T04:32:57.651Z,79.07
2023-04-18T04:38:01.760Z,79.18
2023-04-18T04:43:15.720Z,79.72
2023-04-18T04:48:21.979Z,77.92
2023-04-18T04:53:32.113Z,79.04
2023-04-18T04:58:36.978Z,79.47
2023-04-18T05:03:45.386Z,82.88
2023-04-18T05:08:51.605Z,82.88
2023-04-18T05:13:53.936Z,79.14
2023-04-18T05:18:56.187Z,80.03
2023-04-18T05:23:58.466Z,79.78
2023-04-18T05:29:00.995Z,79.24
2023-04-18T05:34:03.273Z,80.22
2023-04-18T05:39:05.542Z,80.45
2023-04-18T05:44:08.066Z,79.82
2023-04-18T05:49:10.424Z,79.64
2023-04-18T05:54:13.640Z,78.54
2023-04-18T05:59:16.179Z,80.22
2023-04-18T06:04:19.432Z,77.46
2023-04-18T06:09:21.994Z,77.62
2023-04-18T06:14:24.572Z,78.42
2023-04-18T06:19:26.867Z,78.35
2023-04-18T06:24:31.224Z,79.03
2023-04-18T06:29:35.592Z,79.89
2023-04-18T06:34:38.541Z,79.66
2023-04-18T06:39:40.841Z,82.21
2023-04-18T06:44:43.388Z,80.62
2023-04-18T06:49:45.698Z,81.79
2023-04-18T06:54:47.986Z,81.29
2023-04-18T06:59:50.287Z,81.68
2023-04-18T07:04:52.576Z,81.30
2023-04-18T07:09:55.169Z,78.81
2023-04-18T07:14:57.427Z,80.14
2023-04-18T07:20:00.888Z,79.69
2023-04-18T07:25:03.201Z,78.61
2023-04-18T07:30:06.442Z,80.12
2023-04-18T07:35:09.259Z,78.69
2023-04-18T07:40:12.326Z,79.61
2023-04-18T07:45:15.672Z,76.64
2023-04-18T07:50:18.132Z,77.36
2023-04-18T07:55:20.749Z,78.22
2023-04-18T08:00:23.111Z,77.61
2023-04-18T08:05:25.540Z,78.71
2023-04-18T08:10:28.006Z,77.27
2023-04-18T08:15:32.876Z,80.26
2023-04-18T08:20:37.257Z,76.98
2023-04-18T08:25:39.711Z,77.41
2023-04-18T08:30:42.814Z,79.57
2023-04-18T08:35:45.064Z,78.94
2023-04-18T08:40:48.125Z,79.69
2023-04-18T08:45:50.831Z,79.02
2023-04-18T08:50:58.714Z,76.88
2023-04-18T08:56:01.563Z,76.87
2023-04-18T09:01:04.028Z,79.38
2023-04-18T09:06:12.738Z,78.87
2023-04-18T09:11:42.630Z,78.92
2023-04-18T09:16:48.057Z,78.45
2023-04-18T09:22:01.012Z,76.69
2023-04-18T09:27:04.422Z,77.01
2023-04-18T09:32:07.114Z,78.16
2023-04-18T09:37:12.578Z,77.67
2023-04-18T09:42:14.844Z,76.97
2023-04-18T09:47:16.953Z,77.08
2023-04-18T09:52:21.242Z,77.38
2023-04-18T09:57:28.780Z,77.40
2023-04-18T10:02:45.248Z,77.21
2023-04-18T10:07:49.956Z,79.13
2023-04-18T10:12:56.563Z,77.72
2023-04-18T10:18:11.127Z,78.89
2023-04-18T10:23:40.628Z,76.78
2023-04-18T10:28:59.614Z,77.82
2023-04-18T10:34:06.319Z,76.76
2023-04-18T10:39:25.702Z,76.56
2023-04-18T10:44:28.186Z,75.81
2023-04-18T10:49:34.088Z,77.74
2023-04-18T10:54:55.187Z,75.62
2023-04-18T10:59:58.524Z,76.86
2023-04-18T11:05:04.586Z,76.04
2023-04-18T11:10:09.579Z,74.20
2023-04-18T11:15:23.774Z,74.70
2023-04-18T11:20:26.775Z,75.49
2023-04-18T11:25:37.095Z,73.53
2023-04-18T11:30:41.288Z,74.00
2023-04-18T11:35:47.392Z,73.50
2023-04-18T11:40:50.709Z,75.00
2023-04-18T11:46:00.710Z,72.81
2023-04-18T11:51:03.119Z,73.30
2023-04-18T11:56:06.515Z,71.46
2023-04-18T12:01:20.661Z,70.97
2023-04-18T12:06:23.248Z,71.23
2023-04-18T12:11:25.700Z,72.17
2023-04-18T12:16:28.475Z,71.64
2023-04-18T12:21:33.215Z,69.79
2023-04-18T12:26:44.887Z,70.03
2023-04-18T12:31:48.246Z,69.39
2023-04-18T12:36:50.717Z,69.63
2023-04-18T12:41:53.026Z,69.49
2023-04-18T12:46:55.562Z,69.57
2023-04-18T12:51:57.971Z,69.44
2023-04-18T12:57:01.637Z,69.51
2023-04-18T13:02:04.150Z,69.04
2023-04-18T13:07:06.547Z,69.65
2023-04-18T13:12:08.762Z,67.19
2023-04-18T13:17:11.081Z,67.24
2023-04-18T13:22:13.450Z,67.49
2023-04-18T13:27:15.969Z,67.76
2023-04-18T13:32:18.427Z,66.53
2023-04-18T13:37:20.948Z,66.98
2023-04-18T13:42:23.234Z,67.28
2023-04-18T13:47:25.944Z,65.88
2023-04-18T13:52:28.337Z,66.36
2023-04-18T13:57:32.402Z,65.60
2023-04-18T14:02:34.900Z,64.93
2023-04-18T14:07:38.565Z,64.04
2023-04-18T14:12:41.080Z,63.42
2023-04-18T14:17:44.849Z,63.75
2023-04-18T14:22:52.861Z,63.10
2023-04-18T14:28:08.866Z,64.28
2023-04-18T14:33:11.387Z,63.27
2023-04-18T14:38:13.688Z,63.21
2023-04-18T14:43:16.167Z,63.70
2023-04-18T14:48:18.371Z,62.68
2023-04-18T14:53:21.426Z,62.58
2023-04-18T14:58:23.849Z,62.20
2023-04-18T15:03:26.174Z,61.19
2023-04-18T15:08:28.730Z,59.64
2023-04-18T15:13:31.462Z,62.46
2023-04-18T15:18:33.777Z,61.36
2023-04-18T15:23:36.026Z,60.96
2023-04-18T15:28:38.328Z,61.23
2023-04-18T15:33:40.601Z,61.58
2023-04-18T15:38:42.931Z,62.03
2023-04-18T15:43:45.574Z,60.19
2023-04-18T15:48:47.709Z,61.66
2023-04-18T15:53:49.997Z,61.11
2023-04-18T15:58:52.233Z,60.69
2023-04-18T16:03:54.498Z,60.48
2023-04-18T16:08:56.903Z,59.19
2023-04-18T16:13:59.002Z,59.59
2023-04-18T16:19:01.604Z,59.68
2023-04-18T16:24:03.840Z,58.94
2023-04-18T16:29:06.359Z,61.13
2023-04-18T16:34:09.571Z,60.61
2023-04-18T16:39:12.815Z,61.54
2023-04-18T16:44:15.284Z,63.91
2023-04-18T16:49:17.867Z,62.48
2023-04-18T16:54:19.991Z,62.88
2023-04-18T16:59:22.346Z,62.84
2023-04-18T17:04:27.089Z,63.44
2023-04-18T17:09:30.143Z,62.63
2023-04-18T17:14:32.386Z,62.73
2023-04-18T17:19:34.605Z,62.96
2023-04-18T17:24:36.728Z,64.23
2023-04-18T17:29:38.911Z,63.77
2023-04-18T17:34:41.107Z,64.08
2023-04-18T17:39:44.557Z,63.29
2023-04-18T17:44:46.797Z,64.38
2023-04-18T17:49:49.217Z,63.94
2023-04-18T17:54:51.697Z,65.43
2023-04-18T17:59:54.356Z,65.31
2023-04-18T18:04:56.628Z,65.41
2023-04-18T18:09:58.892Z,67.90
2023-04-18T18:15:01.196Z,68.34
2023-04-18T18:20:10.699Z,69.94
2023-04-18T18:25:13.085Z,70.34
2023-04-18T18:30:15.585Z,70.51
2023-04-18T18:35:18.002Z,69.43
2023-04-18T18:40:20.520Z,67.81
2023-04-18T18:45:23.051Z,68.41
2023-04-18T18:50:25.214Z,70.56
2023-04-18T18:55:27.727Z,71.20
2023-04-18T19:00:30.088Z,71.85
2023-04-18T19:05:32.361Z,71.71
2023-04-18T19:10:34.798Z,70.23
2023-04-18T19:15:37.257Z,73.77
2023-04-18T19:20:40.453Z,74.53
2023-04-18T19:25:42.830Z,74.31
2023-04-18T19:30:46.547Z,74.91
2023-04-18T19:35:48.809Z,73.28
2023-04-18T19:40:51.187Z,76.39
2023-04-18T19:45:55.262Z,75.30
2023-04-18T19:50:57.862Z,74.19
2023-04-18T19:56:00.002Z,72.57
2023-04-18T20:01:02.832Z,72.53
2023-04-18T20:06:06.370Z,74.94
2023-04-18T20:11:10.698Z,76.52
2023-04-18T20:16:12.963Z,76.67
2023-04-18T20:21:15.701Z,72.81
2023-04-18T20:26:17.992Z,76.07
2023-04-18T20:31:20.410Z,75.05
2023-04-18T20:36:23.741Z,77.10
2023-04-18T20:41:27.207Z,75.98
2023-04-18T20:46:29.569Z,74.90
2023-04-18T20:51:31.992Z,75.43
2023-04-18T20:56:36.043Z,74.46
2023-04-18T21:01:38.193Z,72.87
2023-04-18T21:06:40.446Z,74.25
2023-04-18T21:11:42.835Z,77.07
2023-04-18T21:16:45.102Z,74.08
2023-04-18T21:21:47.376Z,72.80
2023-04-18T21:26:49.526Z,73.74
2023-04-18T21:31:51.793Z,74.08
2023-04-18T21:36:54.230Z,73.97
2023-04-18T21:41:57.305Z,75.40
2023-04-18T21:46:59.561Z,77.89
2023-04-18T21:52:01.783Z,76.57
2023-04-18T21:57:05.902Z,75.41
2023-04-18T22:02:08.373Z,76.16
2023-04-18T22:07:12.531Z,75.04
2023-04-18T22:12:15.807Z,76.67
2023-04-18T22:17:17.948Z,77.23
2023-04-18T22:22:20.248Z,76.71
2023-04-18T22:27:22.550Z,75.14
2023-04-18T22:32:24.891Z,76.98
2023-04-18T22:37:27.161Z,75.61
2023-04-18T22:42:30.021Z,73.39
2023-04-18T22:47:32.751Z,73.04
2023-04-18T22:52:35.123Z,75.82
2023-04-18T22:57:38.981Z,73.07
2023-04-18T23:02:41.686Z,75.16
2023-04-18T23:07:44.243Z,72.63
2023-04-18T23:12:46.591Z,71.71
2023-04-18T23:17:51.301Z,73.07
2023-04-18T23:22:55.292Z,72.58
2023-04-18T23:27:57.521Z,73.39
2023-04-18T23:32:59.872Z,74.26
2023-04-18T23:38:02.353Z,74.02
2023-04-18T23:43:04.680Z,71.79
2023-04-18T23:48:07.113Z,73.11
2023-04-18T23:53:09.437Z,73.66
2023-04-18T23:58:11.815Z,72.05
